Edgar G. Obie (S71)
Chinook, MT
Field Elevation: 2416
Lat: 48°35.32N  Long: 109°15.02W
CTAF/Unicom Freq: 122.8000
   
    
Weather Advisories
2019-07-17   18:22 Z
Altimeter 29.78" Hg
Wind 240° @ 8 KT
Gusts 14 KT
Visibility 10 SM
Temperature 25° C (77° F)
Dewpoint 7° C (45° F)
Relative Humidity 34%
Density Altitude 4,200 feet
Condensation Altitude 11,300 feet
Wind and Runways
Indicated Runway = 26
Headwind = 8 kt
Crosswind = 3 kt
History
 
 
 
More Info
NOAA Forecast
 
 
About Us
Belfort Instrument
 
 
FAA Disclaimer: The data displayed is for advisory purposes only and is not to be used for flight planning or operations. For official data, please call (not available) to hear the current automated AWOS voice message.
  METAR S71 171822Z AUTO 24008G14KT 10 SM 25/07 A2978